createdAt,value
2019-05-13T00:00:59.381Z,3.83
2019-05-13T00:03:30.471Z,4.20
2019-05-13T00:06:01.095Z,4.28
2019-05-13T00:08:33.800Z,3.67
2019-05-13T00:11:04.392Z,3.52
2019-05-13T00:13:34.622Z,4.12
2019-05-13T00:16:05.018Z,4.00
2019-05-13T00:18:35.383Z,4.08
2019-05-13T00:21:05.668Z,4.08
2019-05-13T00:23:36.040Z,4.37
2019-05-13T00:26:07.234Z,4.22
2019-05-13T00:28:38.465Z,4.10
2019-05-13T00:31:09.616Z,3.85
2019-05-13T00:33:40.850Z,3.45
2019-05-13T00:36:14.102Z,3.70
2019-05-13T00:38:44.573Z,3.62
2019-05-13T00:41:15.001Z,3.40
2019-05-13T00:43:46.325Z,4.03
2019-05-13T00:46:17.297Z,3.70
2019-05-13T00:48:48.672Z,3.33
2019-05-13T00:51:19.056Z,3.12
2019-05-13T00:53:49.354Z,3.75
2019-05-13T00:56:20.440Z,3.55
2019-05-13T00:58:53.979Z,3.50
2019-05-13T01:01:24.427Z,3.60
2019-05-13T01:03:56.616Z,3.30
2019-05-13T01:06:27.753Z,3.60
2019-05-13T01:08:59.000Z,3.37
2019-05-13T01:11:30.139Z,4.08
2019-05-13T01:14:01.338Z,3.42
2019-05-13T01:16:34.110Z,3.22
2019-05-13T01:19:05.021Z,3.30
2019-05-13T01:21:36.169Z,3.50
2019-05-13T01:24:07.516Z,3.27
2019-05-13T01:26:38.722Z,3.00
2019-05-13T01:29:09.920Z,2.95
2019-05-13T01:31:43.470Z,3.30
2019-05-13T01:34:14.437Z,3.60
2019-05-13T01:36:45.656Z,3.75
2019-05-13T01:39:16.873Z,3.60
2019-05-13T01:41:47.721Z,3.40
2019-05-13T01:44:19.116Z,3.90
2019-05-13T01:46:50.268Z,3.60
2019-05-13T01:49:23.950Z,3.72
2019-05-13T01:51:54.666Z,3.55
2019-05-13T01:54:26.223Z,3.62
2019-05-13T01:56:57.456Z,3.42
2019-05-13T01:59:28.673Z,3.27
2019-05-13T02:01:59.799Z,3.00
2019-05-13T02:04:30.973Z,3.02
2019-05-13T02:07:04.068Z,3.12
2019-05-13T02:09:35.269Z,3.00
2019-05-13T02:12:06.430Z,2.60
2019-05-13T02:14:37.869Z,2.72
2019-05-13T02:17:09.081Z,2.40
2019-05-13T02:19:40.315Z,2.45
2019-05-13T02:22:14.408Z,2.40
2019-05-13T02:24:44.658Z,2.45
2019-05-13T02:27:15.713Z,3.10
2019-05-13T02:29:46.973Z,2.45
2019-05-13T02:32:18.209Z,2.40
2019-05-13T02:34:49.432Z,2.30
2019-05-13T02:37:23.196Z,2.00
2019-05-13T02:39:53.389Z,2.45
2019-05-13T02:42:24.689Z,2.10
2019-05-13T02:44:56.126Z,2.12
2019-05-13T02:47:27.547Z,2.00
2019-05-13T02:50:03.878Z,1.70
2019-05-13T02:52:33.480Z,2.05
2019-05-13T02:55:05.624Z,1.85
2019-05-13T02:57:36.761Z,2.00
2019-05-13T03:00:12.502Z,2.10
2019-05-13T03:02:43.758Z,1.90
2019-05-13T03:05:14.809Z,1.80
2019-05-13T03:07:45.142Z,2.12
2019-05-13T03:10:15.657Z,1.60
2019-05-13T03:12:45.976Z,1.77
2019-05-13T03:15:17.391Z,1.82
2019-05-13T03:18:05.968Z,1.70
2019-05-13T03:20:37.950Z,1.70
2019-05-13T03:23:13.067Z,1.60
2019-05-13T03:25:43.154Z,1.82
2019-05-13T03:28:14.139Z,1.70
2019-05-13T03:30:46.289Z,1.70
2019-05-13T03:33:19.933Z,1.80
2019-05-13T03:35:55.930Z,1.47
2019-05-13T03:38:24.542Z,1.60
2019-05-13T03:40:57.386Z,1.10
2019-05-13T03:43:32.449Z,1.27
2019-05-13T03:46:05.140Z,1.32
2019-05-13T03:48:36.574Z,1.20
2019-05-13T03:51:08.086Z,1.30
2019-05-13T03:53:39.118Z,1.10
2019-05-13T03:56:12.871Z,1.90
2019-05-13T03:58:43.584Z,1.72
2019-05-13T04:01:15.050Z,1.17
2019-05-13T04:03:45.915Z,1.40
2019-05-13T04:06:16.821Z,1.10
2019-05-13T04:08:47.730Z,0.85
2019-05-13T04:11:18.830Z,1.25
2019-05-13T04:13:52.436Z,1.00
2019-05-13T04:16:23.811Z,1.30
2019-05-13T04:18:54.505Z,0.93
2019-05-13T04:21:25.920Z,1.00
2019-05-13T04:23:56.965Z,1.22
2019-05-13T04:26:28.336Z,1.07
2019-05-13T04:29:03.013Z,2.27
2019-05-13T04:31:33.309Z,2.60
2019-05-13T04:34:05.690Z,1.70
2019-05-13T04:36:36.545Z,1.70
2019-05-13T04:39:08.321Z,1.67
2019-05-13T04:41:42.226Z,1.90
2019-05-13T04:44:13.022Z,1.72
2019-05-13T04:46:44.656Z,1.47
2019-05-13T04:49:16.072Z,1.05
2019-05-13T04:51:46.253Z,1.60
2019-05-13T04:54:17.468Z,1.22
2019-05-13T04:56:48.752Z,2.40
2019-05-13T04:59:22.679Z,2.80
2019-05-13T05:02:38.067Z,2.15
2019-05-13T05:05:08.227Z,2.35
2019-05-13T05:07:46.248Z,1.95
2019-05-13T05:11:07.472Z,1.70
2019-05-13T05:14:22.448Z,1.85
2019-05-13T05:17:32.896Z,1.92
2019-05-13T05:20:15.939Z,1.95
2019-05-13T05:23:33.465Z,2.33
2019-05-13T05:26:43.524Z,2.10
2019-05-13T05:29:24.009Z,2.02
2019-05-13T05:32:18.127Z,1.85
2019-05-13T05:35:38.559Z,1.80
2019-05-13T05:38:25.677Z,1.60
2019-05-13T05:40:54.720Z,2.12
2019-05-13T05:43:27.337Z,2.58
2019-05-13T05:45:58.948Z,2.20
2019-05-13T05:48:32.526Z,2.15
2019-05-13T05:51:05.517Z,1.95
2019-05-13T05:53:38.580Z,2.33
2019-05-13T05:56:12.513Z,2.52
2019-05-13T05:58:45.900Z,2.12
2019-05-13T06:01:19.104Z,2.42
2019-05-13T06:03:51.998Z,2.33
2019-05-13T06:06:23.461Z,2.27
2019-05-13T06:08:54.797Z,2.27
2019-05-13T06:11:25.981Z,2.55
2019-05-13T06:13:57.245Z,2.27
2019-05-13T12:01:15.877Z,3.12
2019-05-13T12:03:47.228Z,3.10
2019-05-13T12:06:18.145Z,3.20
2019-05-13T12:08:52.097Z,3.27
2019-05-13T12:11:22.573Z,3.22
2019-05-13T12:13:53.918Z,3.20
2019-05-13T12:16:24.658Z,3.10
2019-05-13T12:18:55.764Z,2.98
2019-05-13T12:21:27.516Z,3.15
2019-05-13T12:23:57.969Z,3.83
2019-05-13T12:26:32.693Z,3.20
2019-05-13T12:29:02.836Z,3.00
2019-05-13T12:31:34.334Z,3.40
2019-05-13T12:34:05.518Z,3.50
2019-05-13T12:36:35.953Z,3.27
2019-05-13T12:39:07.172Z,3.52
2019-05-13T12:41:38.317Z,3.30
2019-05-13T12:44:12.694Z,3.00
2019-05-13T12:46:49.991Z,3.85
2019-05-13T12:49:16.399Z,2.90
2019-05-13T12:51:46.462Z,3.42
2019-05-13T12:54:17.698Z,3.37
2019-05-13T12:56:52.172Z,3.00
2019-05-13T12:59:22.388Z,3.50
2019-05-13T13:01:53.595Z,3.30
2019-05-13T13:04:24.933Z,3.17
2019-05-13T13:06:56.332Z,2.95
2019-05-13T13:09:26.773Z,3.20
2019-05-13T13:11:58.177Z,3.08
2019-05-13T13:14:36.303Z,3.27
2019-05-13T13:17:04.223Z,2.83
2019-05-13T13:19:34.744Z,2.75
2019-05-13T13:22:07.826Z,3.05
2019-05-13T13:24:50.535Z,2.85
2019-05-13T13:27:19.403Z,2.85
2019-05-13T13:29:46.653Z,2.85
2019-05-13T13:32:18.001Z,2.72
2019-05-13T13:34:53.665Z,2.90
2019-05-13T13:37:22.730Z,3.15
2019-05-13T13:39:55.391Z,2.85
2019-05-13T13:42:27.105Z,3.10
2019-05-13T13:44:58.327Z,3.10
2019-05-13T13:47:32.469Z,3.10
2019-05-13T13:50:02.529Z,2.85
2019-05-13T13:52:34.020Z,2.98
2019-05-13T13:55:08.783Z,2.52
2019-05-13T13:57:38.314Z,3.00
2019-05-13T14:00:26.429Z,2.52
2019-05-13T14:02:43.257Z,2.87
2019-05-13T14:05:14.701Z,2.70
2019-05-13T14:07:46.105Z,2.77
2019-05-13T14:10:17.856Z,2.67
2019-05-13T14:12:49.262Z,3.05
2019-05-13T14:15:21.537Z,2.87
2019-05-13T14:17:53.189Z,2.22
2019-05-13T14:20:24.417Z,3.17
2019-05-13T14:22:58.078Z,3.17
2019-05-13T14:25:32.306Z,3.10
2019-05-13T14:28:03.481Z,3.30
2019-05-13T14:30:35.062Z,2.62
2019-05-13T14:33:06.393Z,2.92
2019-05-13T14:35:37.797Z,2.70
2019-05-13T14:38:11.725Z,3.02
2019-05-13T14:40:42.160Z,3.00
2019-05-13T14:43:13.734Z,2.50
2019-05-13T14:45:44.946Z,2.55
2019-05-13T14:48:17.251Z,2.35
2019-05-13T14:50:48.467Z,2.62
2019-05-13T14:53:21.469Z,2.40
2019-05-13T14:55:53.604Z,2.65
2019-05-13T14:58:25.059Z,2.52
2019-05-13T15:01:11.511Z,2.50
2019-05-13T15:03:29.111Z,2.22
2019-05-13T15:06:02.786Z,2.67
2019-05-13T15:08:34.115Z,2.33
2019-05-13T15:11:05.552Z,2.50
2019-05-13T15:13:37.107Z,2.47
2019-05-13T15:16:09.486Z,2.05
2019-05-13T15:18:41.723Z,2.83
2019-05-13T15:21:13.037Z,2.40
2019-05-13T15:23:44.261Z,2.55
2019-05-13T15:26:15.615Z,2.20
2019-05-13T15:28:48.216Z,1.95
2019-05-13T15:31:21.429Z,2.40
2019-05-13T15:33:52.658Z,1.90
2019-05-13T15:36:23.880Z,2.00
2019-05-13T15:38:55.118Z,2.00
2019-05-13T15:41:26.409Z,2.10
2019-05-13T15:43:57.745Z,1.90
2019-05-13T15:46:29.098Z,2.02
2019-05-13T15:49:01.658Z,2.30
2019-05-13T15:51:33.673Z,2.22
2019-05-13T15:54:05.461Z,2.08
2019-05-13T15:56:36.860Z,2.12
2019-05-13T15:59:08.937Z,2.33
2019-05-13T16:01:41.483Z,2.58
2019-05-13T16:04:13.732Z,2.10
2019-05-13T16:06:45.237Z,2.30
2019-05-13T16:09:16.554Z,2.30
2019-05-13T16:11:48.159Z,2.55
2019-05-13T16:14:22.007Z,2.40
2019-05-13T16:16:52.956Z,3.02
2019-05-13T16:19:24.342Z,3.80
2019-05-13T16:21:55.634Z,4.12
2019-05-13T16:24:26.956Z,4.75
2019-05-13T16:26:58.556Z,3.40
2019-05-13T16:29:31.549Z,2.67
2019-05-13T16:32:03.210Z,2.70
2019-05-13T16:34:34.112Z,2.40
2019-05-13T16:37:05.221Z,2.80
2019-05-13T16:39:36.948Z,3.20
2019-05-13T16:42:07.998Z,2.92
2019-05-13T16:44:38.986Z,2.90
2019-05-13T16:47:12.180Z,2.20
2019-05-13T16:49:45.418Z,2.37
2019-05-13T16:52:17.576Z,2.10
2019-05-13T16:54:52.763Z,2.15
2019-05-13T16:57:23.089Z,2.42
2019-05-13T16:59:54.564Z,2.10
2019-05-13T17:02:26.097Z,2.45
2019-05-13T17:04:57.891Z,2.37
2019-05-13T17:07:31.679Z,2.20
2019-05-13T17:10:03.830Z,2.45
2019-05-13T17:12:36.360Z,2.10
2019-05-13T17:15:08.274Z,2.00
2019-05-13T17:17:41.039Z,1.90
2019-05-13T17:20:12.713Z,2.70
2019-05-13T17:22:44.323Z,2.30
2019-05-13T17:25:16.332Z,2.20
2019-05-13T17:27:47.475Z,2.25
2019-05-13T17:30:19.116Z,2.33
2019-05-13T17:32:51.612Z,2.20
2019-05-13T17:35:22.926Z,2.50
2019-05-13T17:37:54.412Z,2.65
2019-05-13T17:40:25.757Z,2.17
2019-05-13T17:42:57.106Z,2.67
2019-05-13T17:45:27.607Z,2.55
2019-05-13T17:47:57.930Z,2.83
2019-05-13T17:50:31.377Z,2.40
2019-05-13T17:53:02.078Z,2.10
2019-05-13T17:55:35.464Z,2.40
2019-05-13T17:58:06.695Z,2.42
2019-05-13T18:00:37.706Z,2.02
2019-05-13T18:03:11.192Z,2.30
2019-05-13T18:05:42.165Z,2.20
2019-05-13T18:08:13.508Z,2.20
2019-05-13T18:10:44.966Z,2.25
2019-05-13T18:13:15.944Z,2.08
2019-05-13T18:15:46.924Z,2.10
2019-05-13T18:18:17.920Z,2.10
2019-05-13T18:20:49.251Z,2.12
2019-05-13T18:23:20.599Z,2.35
2019-05-13T18:25:52.865Z,2.50
2019-05-13T18:28:30.213Z,2.37
2019-05-13T18:30:57.727Z,2.70
2019-05-13T18:33:32.015Z,2.60
2019-05-13T18:36:04.764Z,5.03
2019-05-13T18:38:35.151Z,2.55
2019-05-13T18:41:06.131Z,2.65
2019-05-13T18:43:37.316Z,2.37
2019-05-13T18:46:08.506Z,1.98
2019-05-13T18:48:57.368Z,2.42
2019-05-13T18:51:13.883Z,2.70
2019-05-13T18:53:45.142Z,2.60
2019-05-13T18:56:16.716Z,2.15
2019-05-13T18:58:48.637Z,2.60
2019-05-13T19:01:21.591Z,2.20
2019-05-13T19:03:52.733Z,2.47
2019-05-13T19:06:24.021Z,2.65
2019-05-13T19:08:56.239Z,2.50
2019-05-13T19:11:27.610Z,2.22
2019-05-13T19:13:58.679Z,2.60
2019-05-13T19:16:31.927Z,2.83
2019-05-13T19:19:12.355Z,2.45
2019-05-13T19:21:35.371Z,2.60
2019-05-13T19:24:06.625Z,2.45
2019-05-13T19:26:38.034Z,2.58
2019-05-13T19:29:12.193Z,2.52
2019-05-13T19:31:43.106Z,2.52
2019-05-13T19:34:14.031Z,2.60
2019-05-13T19:36:45.385Z,2.45
2019-05-13T19:39:16.788Z,2.50
2019-05-13T19:41:47.839Z,2.50
2019-05-13T19:44:19.169Z,2.72
2019-05-13T19:46:52.266Z,2.30
2019-05-13T19:49:32.613Z,2.33
2019-05-13T19:51:56.292Z,2.30
2019-05-13T19:54:27.482Z,2.58
2019-05-13T19:57:01.381Z,2.35
2019-05-13T19:59:32.380Z,2.42
2019-05-13T20:02:03.957Z,2.30
2019-05-13T20:04:35.370Z,2.25
2019-05-13T20:07:06.037Z,2.20
2019-05-13T20:09:36.331Z,2.45
2019-05-13T20:12:06.857Z,2.30
2019-05-13T20:14:38.184Z,2.60
2019-05-13T20:17:09.607Z,2.15
2019-05-13T20:19:47.663Z,2.20
2019-05-13T20:22:12.871Z,2.10
2019-05-13T20:24:45.096Z,2.70
2019-05-13T20:27:16.885Z,2.50
2019-05-13T20:29:48.016Z,2.30
2019-05-13T20:32:22.070Z,2.67
2019-05-13T20:34:53.084Z,2.27
2019-05-13T20:37:24.349Z,2.92
2019-05-13T20:39:55.566Z,2.55
2019-05-13T20:42:26.056Z,2.50
2019-05-13T20:44:56.365Z,2.70
2019-05-13T20:47:27.667Z,2.60
2019-05-13T20:50:02.205Z,2.67
2019-05-13T20:52:31.952Z,2.40
2019-05-13T20:55:03.032Z,2.52
2019-05-13T20:57:35.408Z,2.90
2019-05-13T21:00:07.431Z,2.55
2019-05-13T21:02:41.695Z,2.80
2019-05-13T21:05:12.202Z,3.05
2019-05-13T21:07:43.495Z,2.33
2019-05-13T21:10:14.829Z,2.65
2019-05-13T21:12:46.095Z,2.70
2019-05-13T21:15:16.880Z,2.35
2019-05-13T21:17:47.518Z,2.50
2019-05-13T21:20:23.242Z,2.40
2019-05-13T21:22:51.789Z,2.37
2019-05-13T21:25:22.903Z,2.70
2019-05-13T21:27:54.129Z,2.60
2019-05-13T21:30:25.943Z,2.37
2019-05-13T21:32:57.316Z,2.85
2019-05-13T21:35:28.658Z,2.52
2019-05-13T21:38:01.725Z,2.70
2019-05-13T21:40:32.740Z,2.15
2019-05-13T21:43:05.318Z,2.60
2019-05-13T21:45:36.538Z,2.50
2019-05-13T21:48:07.772Z,2.20
2019-05-13T21:50:41.288Z,2.30
2019-05-13T21:53:12.533Z,2.50
2019-05-13T21:55:43.721Z,2.55
2019-05-13T21:58:14.916Z,2.67
2019-05-13T22:00:48.302Z,2.08
2019-05-13T22:03:19.809Z,2.33
2019-05-13T22:05:51.660Z,2.22
2019-05-13T22:08:22.573Z,2.25
2019-05-13T22:10:53.798Z,2.50
2019-05-13T22:13:27.077Z,2.30
2019-05-13T22:15:58.307Z,2.92
2019-05-13T22:18:31.436Z,2.10
2019-05-13T22:21:03.044Z,1.98
2019-05-13T22:23:34.381Z,1.82
2019-05-13T22:26:05.784Z,2.62
2019-05-13T22:28:37.097Z,2.20
2019-05-13T22:31:08.449Z,2.33
2019-05-13T22:33:41.242Z,2.47
2019-05-13T22:36:12.712Z,2.25
2019-05-13T22:38:44.163Z,2.00
2019-05-13T22:41:15.477Z,2.55
2019-05-13T22:43:55.705Z,2.85
2019-05-13T22:46:21.388Z,1.95
2019-05-13T22:48:52.357Z,2.72
2019-05-13T22:51:23.657Z,2.00
2019-05-13T22:53:54.957Z,1.80
2019-05-13T22:56:26.161Z,2.10
2019-05-13T22:58:57.343Z,2.37
2019-05-13T23:01:28.541Z,2.12
2019-05-13T23:04:02.075Z,2.58
2019-05-13T23:06:33.609Z,2.20
2019-05-13T23:09:05.958Z,2.30
2019-05-13T23:11:37.161Z,2.25
2019-05-13T23:14:10.934Z,2.02
2019-05-13T23:16:42.357Z,1.98
2019-05-13T23:19:13.571Z,2.10
2019-05-13T23:21:46.020Z,2.37
2019-05-13T23:24:17.135Z,2.58
2019-05-13T23:26:48.422Z,2.50
2019-05-13T23:29:21.435Z,2.60
2019-05-13T23:31:52.814Z,2.10
2019-05-13T23:34:24.149Z,2.20
2019-05-13T23:36:55.363Z,2.37
2019-05-13T23:39:26.772Z,2.20
2019-05-13T23:41:58.465Z,2.33
2019-05-13T23:44:32.266Z,2.30
2019-05-13T23:47:04.953Z,2.27
2019-05-13T23:49:36.965Z,1.98
2019-05-13T23:52:08.241Z,2.40
2019-05-13T23:54:39.594Z,1.80
2019-05-13T23:57:11.841Z,2.55
2019-05-13T23:59:42.975Z,1.95
